createdAt,value
2019-02-27T00:00:13.771Z,33.67
2019-02-27T00:02:42.082Z,32.00
2019-02-27T00:05:10.377Z,32.47
2019-02-27T00:07:38.657Z,33.58
2019-02-27T00:10:07.680Z,34.90
2019-02-27T00:12:35.972Z,30.80
2019-02-27T00:15:05.953Z,31.27
2019-02-27T00:17:34.300Z,33.30
2019-02-27T00:20:05.005Z,32.63
2019-02-27T00:22:32.621Z,31.62
2019-02-27T00:25:03.552Z,36.43
2019-02-27T00:27:30.937Z,32.33
2019-02-27T00:29:59.500Z,33.30
2019-02-27T00:32:29.211Z,34.10
2019-02-27T00:34:57.493Z,34.83
2019-02-27T00:37:25.778Z,32.50
2019-02-27T00:39:54.094Z,32.83
2019-02-27T00:42:23.068Z,31.57
2019-02-27T00:44:51.364Z,31.37
2019-02-27T00:47:20.195Z,29.57
2019-02-27T00:49:49.010Z,31.20
2019-02-27T00:52:18.235Z,30.50
2019-02-27T00:54:47.066Z,33.15
2019-02-27T00:57:19.983Z,30.27
2019-02-27T00:59:45.355Z,31.20
2019-02-27T01:02:13.632Z,31.50
2019-02-27T01:04:41.933Z,31.30
2019-02-27T01:07:10.214Z,28.97
2019-02-27T01:09:39.558Z,32.37
2019-02-27T01:12:08.267Z,35.17
2019-02-27T01:14:37.086Z,31.30
2019-02-27T01:17:05.959Z,34.18
2019-02-27T01:19:38.466Z,32.17
2019-02-27T01:22:04.276Z,30.62
2019-02-27T01:24:32.576Z,31.53
2019-02-27T01:27:04.315Z,30.83
2019-02-27T01:29:30.892Z,33.93
2019-02-27T01:31:59.183Z,32.43
2019-02-27T01:34:27.490Z,29.77
2019-02-27T01:36:57.903Z,31.20
2019-02-27T01:39:25.787Z,30.07
2019-02-27T01:41:55.321Z,32.40
2019-02-27T01:44:24.096Z,30.72
2019-02-27T01:46:54.530Z,33.10
2019-02-27T01:49:22.408Z,29.67
2019-02-27T01:51:50.690Z,30.57
2019-02-27T01:54:18.960Z,31.97
2019-02-27T01:56:47.258Z,28.10
2019-02-27T01:59:16.785Z,30.20
2019-02-27T02:01:45.536Z,28.57
2019-02-27T02:04:13.840Z,29.77
2019-02-27T02:06:42.109Z,29.95
2019-02-27T02:09:30.370Z,28.30
2019-02-27T02:11:59.212Z,31.23
2019-02-27T02:14:54.084Z,29.40
2019-02-27T02:17:56.356Z,27.10
2019-02-27T02:20:36.597Z,30.33
2019-02-27T02:23:19.712Z,27.30
2019-02-27T02:25:51.185Z,25.20
2019-02-27T02:28:56.708Z,28.10
2019-02-27T02:31:30.821Z,29.57
2019-02-27T02:34:39.883Z,26.20
2019-02-27T02:37:24.565Z,26.70
2019-02-27T02:40:07.483Z,26.10
2019-02-27T02:42:45.023Z,24.07
2019-02-27T02:45:25.402Z,25.10
2019-02-27T02:48:14.700Z,27.25
2019-02-27T02:51:19.143Z,26.15
2019-02-27T02:54:20.652Z,26.35
2019-02-27T02:57:23.190Z,28.40
2019-02-27T03:00:01.177Z,25.82
2019-02-27T03:02:52.428Z,27.30
2019-02-27T03:05:44.497Z,23.90
2019-02-27T03:08:20.267Z,26.83
2019-02-27T03:11:05.817Z,25.13
2019-02-27T03:13:42.033Z,26.00
2019-02-27T03:16:13.463Z,24.90
2019-02-27T03:18:56.826Z,27.97
2019-02-27T03:21:46.181Z,25.53
2019-02-27T03:24:32.488Z,25.50
2019-02-27T03:27:15.643Z,26.27
2019-02-27T03:29:59.100Z,23.75
2019-02-27T03:32:48.553Z,24.13
2019-02-27T03:35:39.468Z,25.17
2019-02-27T03:38:34.351Z,22.67
2019-02-27T03:41:08.709Z,25.00
2019-02-27T03:43:48.829Z,23.70
2019-02-27T03:46:31.420Z,25.73
2019-02-27T03:49:14.418Z,24.80
2019-02-27T03:51:59.703Z,25.50
2019-02-27T03:54:42.251Z,26.50
2019-02-27T03:57:34.574Z,25.80
2019-02-27T04:00:18.160Z,27.20
2019-02-27T04:02:44.838Z,27.80
2019-02-27T04:05:32.719Z,25.27
2019-02-27T04:08:09.932Z,24.27
2019-02-27T04:10:38.209Z,25.30
2019-02-27T04:13:06.485Z,26.90
2019-02-27T04:15:34.834Z,24.57
2019-02-27T04:18:02.175Z,27.27
2019-02-27T04:20:30.473Z,24.12
2019-02-27T04:22:58.762Z,25.10
2019-02-27T04:25:31.129Z,24.83
2019-02-27T04:27:57.057Z,25.87
2019-02-27T04:30:25.341Z,23.83
2019-02-27T04:32:53.625Z,25.33
2019-02-27T04:35:21.902Z,27.10
2019-02-27T04:37:53.933Z,28.03
2019-02-27T04:40:20.197Z,26.65
2019-02-27T04:42:48.486Z,24.93
2019-02-27T04:45:16.765Z,24.60
2019-02-27T04:47:45.045Z,25.03
2019-02-27T04:50:13.337Z,24.17
2019-02-27T04:52:41.629Z,27.50
2019-02-27T04:55:09.918Z,26.02
2019-02-27T04:57:38.194Z,26.03
2019-02-27T05:00:09.597Z,29.80
2019-02-27T05:02:37.879Z,29.87
2019-02-27T05:05:08.566Z,26.67
2019-02-27T05:07:37.456Z,26.00
2019-02-27T05:10:08.193Z,24.92
2019-02-27T05:12:36.465Z,26.03
2019-02-27T05:15:06.103Z,24.57
2019-02-27T05:17:34.378Z,26.17
2019-02-27T05:20:02.687Z,27.47
2019-02-27T05:22:30.962Z,28.67
2019-02-27T05:24:59.223Z,29.60
2019-02-27T05:27:27.517Z,28.85
2019-02-27T05:29:55.813Z,30.10
2019-02-27T05:32:25.310Z,29.90
2019-02-27T05:34:54.132Z,31.23
2019-02-27T05:37:22.423Z,32.13
2019-02-27T05:39:51.721Z,28.40
2019-02-27T05:42:20.082Z,30.50
2019-02-27T05:44:48.361Z,28.63
2019-02-27T05:47:16.642Z,29.23
2019-02-27T05:49:44.944Z,31.35
2019-02-27T05:52:14.359Z,30.20
2019-02-27T05:54:43.318Z,30.93
2019-02-27T05:57:11.652Z,29.00
2019-02-27T05:59:39.885Z,30.03
2019-02-27T06:02:10.569Z,30.80
2019-02-27T06:04:38.190Z,32.50
2019-02-27T06:07:06.470Z,31.60
2019-02-27T06:09:34.768Z,30.80
2019-02-27T06:12:06.560Z,32.28
2019-02-27T06:14:33.071Z,30.80
2019-02-27T06:17:01.343Z,31.12
2019-02-27T06:19:30.571Z,31.47
2019-02-27T06:21:59.646Z,33.87
2019-02-27T06:24:27.948Z,30.53
2019-02-27T06:26:56.232Z,29.10
2019-02-27T06:29:24.519Z,30.80
2019-02-27T06:31:52.806Z,30.50
2019-02-27T06:34:22.372Z,30.47
2019-02-27T06:36:51.098Z,30.53
2019-02-27T06:39:19.374Z,31.07
2019-02-27T06:41:49.748Z,30.72
2019-02-27T06:44:19.081Z,32.03
2019-02-27T06:46:47.448Z,33.10
2019-02-27T06:49:18.216Z,33.20
2019-02-27T06:51:45.765Z,31.50
2019-02-27T06:54:18.113Z,29.27
2019-02-27T06:56:44.069Z,29.53
2019-02-27T06:59:12.349Z,30.62
2019-02-27T07:01:40.626Z,30.15
2019-02-27T07:04:08.935Z,30.77
2019-02-27T07:06:37.260Z,32.00
2019-02-27T07:09:06.377Z,32.03
2019-02-27T07:11:34.658Z,31.82
2019-02-27T07:14:02.948Z,31.60
2019-02-27T07:16:31.236Z,32.93
2019-02-27T07:18:59.506Z,32.60
2019-02-27T07:21:32.403Z,31.43
2019-02-27T07:23:58.664Z,31.02
2019-02-27T07:26:26.948Z,30.00
2019-02-27T07:28:56.079Z,29.53
2019-02-27T07:31:24.356Z,29.50
2019-02-27T07:33:52.623Z,30.97
2019-02-27T07:36:20.899Z,32.67
2019-02-27T07:38:49.163Z,31.05
2019-02-27T07:41:20.146Z,29.13
2019-02-27T07:43:47.509Z,32.80
2019-02-27T07:46:15.784Z,28.83
2019-02-27T07:48:44.060Z,28.20
2019-02-27T07:51:12.357Z,30.30
2019-02-27T07:53:40.637Z,28.38
2019-02-27T07:56:08.916Z,28.45
2019-02-27T07:58:37.218Z,28.87
2019-02-27T08:01:05.510Z,29.27
2019-02-27T08:03:33.790Z,27.93
2019-02-27T08:06:03.022Z,28.53
2019-02-27T08:08:31.263Z,28.60
2019-02-27T08:10:59.544Z,29.97
2019-02-27T08:13:29.720Z,27.90
2019-02-27T08:15:58.101Z,25.07
2019-02-27T08:18:30.011Z,25.37
2019-02-27T08:20:56.392Z,28.17
2019-02-27T08:23:24.675Z,29.10
2019-02-27T08:25:52.972Z,25.13
2019-02-27T08:28:21.243Z,27.50
2019-02-27T08:30:49.531Z,26.17
2019-02-27T08:33:17.813Z,25.30
2019-02-27T08:35:46.094Z,28.53
2019-02-27T08:38:14.424Z,26.70
2019-02-27T08:40:42.693Z,26.40
2019-02-27T08:43:11.026Z,26.10
2019-02-27T08:45:39.455Z,25.70
2019-02-27T08:48:07.740Z,24.60
2019-02-27T08:50:36.022Z,24.92
2019-02-27T08:53:04.647Z,24.43
2019-02-27T08:55:32.945Z,24.93
2019-02-27T08:58:01.224Z,27.45
2019-02-27T09:00:33.393Z,26.53
2019-02-27T09:03:02.824Z,25.20
2019-02-27T09:05:31.941Z,25.93
2019-02-27T09:08:00.226Z,26.70
2019-02-27T09:10:30.728Z,26.12
2019-02-27T09:13:05.410Z,26.37
2019-02-27T09:15:28.482Z,26.57
2019-02-27T09:17:59.136Z,24.77
2019-02-27T09:20:26.776Z,24.90
2019-02-27T09:22:55.865Z,26.23
2019-02-27T09:25:24.949Z,23.32
2019-02-27T09:27:53.285Z,23.20
2019-02-27T09:30:28.760Z,22.98
2019-02-27T09:32:55.628Z,24.47
2019-02-27T09:35:23.917Z,24.33
2019-02-27T09:37:52.209Z,24.73
2019-02-27T09:40:29.668Z,23.77
2019-02-27T09:42:58.200Z,26.10
2019-02-27T09:45:31.428Z,25.53
2019-02-27T09:48:00.669Z,25.87
2019-02-27T09:50:36.970Z,25.20
2019-02-27T09:53:05.308Z,25.00
2019-02-27T09:55:33.591Z,24.50
2019-02-27T09:58:01.945Z,23.73
2019-02-27T10:00:33.385Z,25.30
2019-02-27T10:03:01.961Z,24.50
2019-02-27T10:05:30.308Z,24.60
2019-02-27T10:07:58.646Z,23.55
2019-02-27T10:10:26.921Z,23.85
2019-02-27T10:12:55.188Z,23.73
2019-02-27T10:15:25.289Z,24.80
2019-02-27T10:17:53.575Z,24.70
2019-02-27T10:20:21.863Z,25.00
2019-02-27T10:22:53.385Z,24.37
2019-02-27T10:25:20.161Z,25.73
2019-02-27T10:27:48.515Z,26.80
2019-02-27T10:30:17.361Z,24.92
2019-02-27T10:32:45.647Z,23.80
2019-02-27T10:35:15.823Z,25.80
2019-02-27T10:37:44.305Z,24.02
2019-02-27T10:40:18.686Z,23.70
2019-02-27T10:42:46.956Z,24.87
2019-02-27T10:45:15.571Z,25.27
2019-02-27T10:47:43.871Z,24.57
2019-02-27T10:50:13.109Z,23.87
2019-02-27T10:52:41.397Z,24.47
2019-02-27T10:55:14.182Z,24.40
2019-02-27T10:57:42.329Z,23.35
2019-02-27T11:00:18.917Z,22.27
2019-02-27T11:02:47.882Z,20.50
2019-02-27T11:05:17.860Z,22.87
2019-02-27T11:07:46.742Z,20.67
2019-02-27T11:10:15.080Z,20.12
2019-02-27T11:12:43.473Z,19.60
2019-02-27T11:15:13.920Z,17.30
2019-02-27T11:17:42.233Z,18.10
2019-02-27T11:20:11.621Z,17.67
2019-02-27T11:22:39.919Z,17.57
2019-02-27T11:25:16.828Z,17.55
2019-02-27T11:27:45.138Z,19.05
2019-02-27T11:30:18.344Z,18.40
2019-02-27T11:32:46.627Z,19.40
2019-02-27T11:35:14.984Z,17.92
2019-02-27T11:37:46.626Z,16.97
2019-02-27T11:40:15.815Z,16.43
2019-02-27T11:42:44.110Z,17.50
2019-02-27T11:45:14.626Z,16.57
2019-02-27T11:47:47.883Z,16.77
2019-02-27T11:50:19.436Z,16.63
2019-02-27T11:52:49.138Z,14.80
2019-02-27T11:55:19.733Z,14.93
2019-02-27T11:57:48.005Z,13.43
2019-02-27T12:00:28.708Z,17.00
2019-02-27T12:02:57.625Z,15.97
2019-02-27T12:05:30.612Z,14.80
2019-02-27T12:07:57.130Z,16.03
2019-02-27T12:10:30.654Z,17.20
2019-02-27T12:13:00.739Z,16.43
2019-02-27T12:15:28.948Z,16.40
2019-02-27T12:18:00.494Z,17.43
2019-02-27T12:20:27.278Z,16.77
2019-02-27T12:22:55.609Z,16.10
2019-02-27T12:25:26.925Z,16.87
2019-02-27T12:27:55.555Z,16.83
2019-02-27T12:30:28.353Z,17.10
2019-02-27T12:32:57.054Z,16.73
2019-02-27T12:35:32.684Z,16.80
2019-02-27T12:38:00.987Z,16.67
2019-02-27T12:40:29.262Z,15.38
2019-02-27T12:42:57.553Z,15.85
2019-02-27T12:45:29.742Z,15.57
2019-02-27T12:47:57.872Z,14.73
2019-02-27T12:50:31.020Z,14.30
2019-02-27T12:52:58.251Z,13.93
2019-02-27T12:55:26.814Z,15.07
2019-02-27T12:57:55.104Z,16.20
2019-02-27T13:00:31.838Z,15.10
2019-02-27T13:03:00.105Z,15.20
2019-02-27T13:05:28.741Z,14.23
2019-02-27T13:07:57.092Z,13.53
2019-02-27T13:10:33.012Z,12.40
2019-02-27T13:12:58.453Z,14.33
2019-02-27T13:15:28.709Z,13.20
2019-02-27T13:17:57.993Z,14.80
2019-02-27T13:20:30.161Z,13.60
2019-02-27T13:23:03.829Z,14.60
2019-02-27T13:25:30.276Z,15.00
2019-02-27T13:27:58.453Z,15.80
2019-02-27T13:30:27.879Z,15.73
2019-02-27T13:33:00.636Z,15.20
2019-02-27T13:35:28.281Z,13.30
2019-02-27T13:37:56.231Z,14.90
2019-02-27T13:40:29.412Z,14.70
2019-02-27T13:42:57.692Z,13.53
2019-02-27T13:45:27.209Z,14.00
2019-02-27T13:47:55.576Z,12.10
2019-02-27T13:50:26.731Z,12.97
2019-02-27T13:52:53.933Z,11.60
2019-02-27T13:55:23.158Z,12.13
2019-02-27T13:57:51.464Z,13.93
2019-02-27T14:00:30.000Z,14.65
2019-02-27T14:02:58.367Z,15.25
2019-02-27T14:05:26.651Z,15.07
2019-02-27T14:07:58.522Z,14.83
2019-02-27T14:10:28.181Z,15.20
2019-02-27T14:12:56.569Z,15.57
2019-02-27T14:15:27.389Z,14.53
2019-02-27T14:17:54.839Z,14.00
2019-02-27T14:20:26.984Z,13.50
2019-02-27T14:22:54.080Z,13.50
2019-02-27T14:25:32.947Z,13.90
2019-02-27T14:27:59.944Z,15.10
2019-02-27T14:30:37.286Z,14.40
2019-02-27T14:33:05.576Z,14.43
2019-02-27T14:35:36.188Z,15.93
2019-02-27T14:38:03.865Z,14.13
2019-02-27T14:40:32.159Z,14.33
2019-02-27T14:43:00.464Z,13.30
2019-02-27T14:45:28.765Z,13.23
2019-02-27T14:47:57.046Z,13.90
2019-02-27T14:50:25.597Z,12.67
2019-02-27T14:52:53.878Z,11.90
2019-02-27T14:55:22.704Z,11.10
2019-02-27T14:57:51.505Z,11.37
2019-02-27T15:00:33.645Z,11.60
2019-02-27T15:03:01.928Z,10.40
2019-02-27T15:05:30.205Z,11.68
2019-02-27T15:07:58.528Z,12.30
2019-02-27T15:10:26.877Z,13.00
2019-02-27T15:12:55.610Z,13.10
2019-02-27T15:15:31.146Z,11.33
2019-02-27T15:18:00.183Z,12.40
2019-02-27T15:20:31.185Z,13.50
2019-02-27T15:22:59.461Z,14.60
2019-02-27T15:25:28.037Z,14.50
2019-02-27T15:27:58.826Z,13.63
2019-02-27T15:30:30.342Z,14.40
2019-02-27T15:33:03.982Z,14.67
2019-02-27T15:35:28.657Z,15.27
2019-02-27T15:37:57.115Z,15.17
2019-02-27T15:40:30.094Z,15.00
2019-02-27T15:42:58.526Z,15.13
2019-02-27T15:45:27.946Z,16.02
2019-02-27T15:47:56.242Z,14.10
2019-02-27T15:50:30.455Z,15.13
2019-02-27T15:52:58.748Z,15.57
2019-02-27T15:55:27.053Z,15.67
2019-02-27T15:57:55.332Z,16.10
2019-02-27T16:00:24.754Z,15.15
2019-02-27T16:02:53.049Z,16.20
2019-02-27T16:05:21.419Z,15.73
2019-02-27T16:07:49.941Z,15.20
2019-02-27T16:10:21.322Z,15.75
2019-02-27T16:12:49.600Z,15.17
2019-02-27T16:15:19.349Z,17.27
2019-02-27T16:17:47.631Z,16.87
2019-02-27T16:20:18.425Z,15.20
2019-02-27T16:22:46.718Z,15.20
2019-02-27T16:25:23.821Z,16.13
2019-02-27T16:27:52.133Z,17.48
2019-02-27T16:30:25.073Z,16.20
2019-02-27T16:32:53.374Z,16.60
2019-02-27T16:35:21.669Z,15.87
2019-02-27T16:37:49.976Z,15.17
2019-02-27T16:40:19.894Z,17.90
2019-02-27T16:42:48.521Z,17.73
2019-02-27T16:45:19.525Z,18.60
2019-02-27T16:47:47.799Z,18.70
2019-02-27T16:50:24.598Z,16.97
2019-02-27T16:52:51.528Z,18.97
2019-02-27T16:55:21.661Z,16.43
2019-02-27T16:57:49.935Z,18.07
2019-02-27T17:00:21.422Z,17.40
2019-02-27T17:02:49.809Z,17.20
2019-02-27T17:05:18.112Z,17.87
2019-02-27T17:07:46.394Z,15.80
2019-02-27T17:10:23.500Z,18.30
2019-02-27T17:12:51.785Z,17.03
2019-02-27T17:15:20.092Z,18.50
2019-02-27T17:17:50.586Z,16.47
2019-02-27T17:20:20.271Z,19.43
2019-02-27T17:22:48.559Z,19.43
2019-02-27T17:25:16.840Z,18.52
2019-02-27T17:27:49.837Z,17.40
2019-02-27T17:30:30.058Z,19.12
2019-02-27T17:32:58.352Z,18.07
2019-02-27T17:35:26.635Z,17.77
2019-02-27T17:37:54.949Z,19.52
2019-02-27T17:40:23.230Z,17.75
2019-02-27T17:42:53.590Z,18.30
2019-02-27T17:45:25.436Z,19.10
2019-02-27T17:47:53.732Z,17.70
2019-02-27T17:50:22.022Z,19.50
2019-02-27T17:52:50.319Z,18.80
2019-02-27T17:55:19.248Z,18.20
2019-02-27T17:57:47.554Z,17.20
2019-02-27T18:00:31.170Z,19.48
2019-02-27T18:02:59.464Z,18.43
2019-02-27T18:05:27.755Z,17.57
2019-02-27T18:07:56.057Z,19.30
2019-02-27T18:10:24.374Z,18.13
2019-02-27T18:12:52.668Z,19.83
2019-02-27T18:15:21.997Z,18.93
2019-02-27T18:17:50.413Z,18.17
2019-02-27T18:20:24.295Z,19.43
2019-02-27T18:22:49.567Z,19.80
2019-02-27T18:25:18.569Z,19.32
2019-02-27T18:27:47.899Z,18.80
2019-02-27T18:30:23.424Z,18.57
2019-02-27T18:32:51.690Z,19.80
2019-02-27T18:35:20.251Z,19.03
2019-02-27T18:37:52.948Z,18.97
2019-02-27T18:40:19.336Z,18.47
2019-02-27T18:42:47.623Z,20.00
2019-02-27T18:45:17.554Z,20.60
2019-02-27T18:47:45.835Z,18.40
2019-02-27T18:50:15.376Z,18.73
2019-02-27T18:52:43.765Z,17.40
2019-02-27T18:55:14.741Z,18.57
2019-02-27T18:57:45.691Z,20.55
2019-02-27T19:00:25.067Z,17.05
2019-02-27T19:03:04.269Z,17.60
2019-02-27T19:05:32.580Z,17.87
2019-02-27T19:08:00.870Z,17.67
2019-02-27T19:10:29.316Z,15.70
2019-02-27T19:13:00.178Z,16.17
2019-02-27T19:15:27.751Z,17.17
2019-02-27T19:17:56.110Z,16.23
2019-02-27T19:20:30.342Z,17.40
2019-02-27T19:23:00.325Z,16.32
2019-02-27T19:25:33.966Z,17.07
2019-02-27T19:27:58.789Z,15.60
2019-02-27T19:30:27.435Z,16.53
2019-02-27T19:33:01.567Z,15.63
2019-02-27T19:35:25.889Z,14.40
2019-02-27T19:37:54.175Z,17.33
2019-02-27T19:40:23.620Z,16.80
2019-02-27T19:42:55.223Z,15.97
2019-02-27T19:45:23.600Z,15.53
2019-02-27T19:47:54.805Z,15.58
2019-02-27T19:50:21.980Z,16.00
2019-02-27T19:52:50.323Z,16.73
2019-02-27T19:55:18.618Z,16.40
2019-02-27T19:57:46.892Z,15.93
2019-02-27T20:00:26.717Z,15.47
2019-02-27T20:02:59.337Z,15.90
2019-02-27T20:05:25.081Z,17.13
2019-02-27T20:07:53.825Z,17.92
2019-02-27T20:10:22.100Z,16.48
2019-02-27T20:12:52.966Z,16.52
2019-02-27T20:15:23.331Z,15.53
2019-02-27T20:17:51.435Z,17.00
2019-02-27T20:20:22.946Z,16.60
2019-02-27T20:22:53.547Z,17.00
2019-02-27T20:25:23.766Z,18.20
2019-02-27T20:27:52.071Z,15.85
2019-02-27T20:30:21.430Z,16.90
2019-02-27T20:32:49.961Z,17.30
2019-02-27T20:35:20.742Z,17.70
2019-02-27T20:37:48.359Z,16.33
2019-02-27T20:40:17.601Z,16.70
2019-02-27T20:42:49.922Z,17.23
2019-02-27T20:45:23.213Z,16.57
2019-02-27T20:47:57.621Z,17.40
2019-02-27T20:50:35.742Z,17.67
2019-02-27T20:53:04.674Z,18.53
2019-02-27T20:55:32.962Z,17.83
2019-02-27T20:58:01.250Z,18.13
2019-02-27T21:00:29.528Z,16.33
2019-02-27T21:03:00.563Z,18.70
2019-02-27T21:05:28.222Z,18.27
2019-02-27T21:08:00.946Z,18.98
2019-02-27T21:10:33.726Z,17.30
2019-02-27T21:13:02.028Z,16.67
2019-02-27T21:15:32.619Z,18.17
2019-02-27T21:18:00.401Z,17.95
2019-02-27T21:20:28.775Z,17.73
2019-02-27T21:22:59.974Z,17.30
2019-02-27T21:25:27.168Z,17.00
2019-02-27T21:27:55.552Z,17.93
2019-02-27T21:30:24.368Z,18.07
2019-02-27T21:32:52.658Z,18.35
2019-02-27T21:35:20.994Z,16.80
2019-02-27T21:37:50.912Z,17.27
2019-02-27T21:40:19.712Z,17.60
2019-02-27T21:42:50.789Z,17.33
2019-02-27T21:45:22.895Z,17.50
2019-02-27T21:47:52.676Z,18.00
2019-02-27T21:50:23.477Z,18.00
2019-02-27T21:52:54.318Z,17.70
2019-02-27T21:55:21.805Z,17.82
2019-02-27T21:57:50.155Z,18.37
2019-02-27T22:00:26.098Z,17.10
2019-02-27T22:02:55.535Z,19.80
2019-02-27T22:05:23.810Z,17.47
2019-02-27T22:07:52.292Z,18.30
2019-02-27T22:10:20.749Z,17.80
2019-02-27T22:12:49.097Z,16.47
2019-02-27T22:15:30.099Z,18.90
2019-02-27T22:17:58.463Z,19.27
2019-02-27T22:20:27.051Z,18.73
2019-02-27T22:22:55.337Z,17.53
2019-02-27T22:25:23.659Z,18.93
2019-02-27T22:27:51.964Z,16.90
2019-02-27T22:30:20.967Z,19.73
2019-02-27T22:32:49.285Z,19.13
2019-02-27T22:35:17.924Z,18.53
2019-02-27T22:37:51.308Z,18.02
2019-02-27T22:40:20.876Z,19.70
2019-02-27T22:42:49.360Z,19.62
2019-02-27T22:45:18.580Z,19.77
2019-02-27T22:47:46.880Z,19.40
2019-02-27T22:50:19.162Z,20.23
2019-02-27T22:52:47.450Z,17.35
2019-02-27T22:55:15.777Z,18.97
2019-02-27T22:57:44.071Z,20.77
2019-02-27T23:00:42.982Z,18.87
2019-02-27T23:03:10.390Z,19.00
2019-02-27T23:05:39.111Z,19.20
2019-02-27T23:08:07.453Z,19.70
2019-02-27T23:10:35.737Z,19.30
2019-02-27T23:13:04.203Z,21.37
2019-02-27T23:15:32.580Z,22.53
2019-02-27T23:18:02.510Z,24.50
2019-02-27T23:20:30.923Z,25.70
2019-02-27T23:23:02.124Z,26.82
2019-02-27T23:25:29.211Z,24.50
2019-02-27T23:28:00.571Z,24.23
2019-02-27T23:30:27.519Z,25.80
2019-02-27T23:32:55.805Z,26.97
2019-02-27T23:35:24.100Z,27.58
2019-02-27T23:37:52.856Z,28.83
2019-02-27T23:40:21.133Z,28.67
2019-02-27T23:42:49.432Z,29.13
2019-02-27T23:45:17.721Z,29.13
2019-02-27T23:47:46.028Z,29.13
2019-02-27T23:50:14.699Z,29.30
2019-02-27T23:52:42.983Z,29.98
2019-02-27T23:55:11.355Z,35.03
2019-02-27T23:57:39.648Z,32.45
